Time;durP1;ratioP1;P1;durP2;ratioP2;P2;SDS_P1;SDS_P2;PMS_P1;PMS_P2;Temp;Humidity;BMP_temperature;BMP_pressure;BME280_temperature;BME280_humidity;BME280_pressure;Samples;Min_cycle;Max_cycle;Signal;HPM_P1;HPM_P2
2022/10/19 17:36:36;;;;;;;5.22;3.17;;;;;;;12.57;56.28;101687.91;816237;22;883228;-76
2022/10/19 17:36:58;;;;;;;5.45;3.15;;;;;;;12.53;56.22;101683.38;856492;23;1038;-76
2022/10/19 17:37:18;;;;;;;4.90;2.97;;;;;;;12.54;56.06;101679.94;848262;23;1160;-77
2022/10/19 17:37:39;;;;;;;3.92;2.80;;;;;;;12.50;56.25;101675.44;845702;23;1350;-77
2022/10/19 17:38:00;;;;;;;3.80;2.80;;;;;;;12.54;56.63;101685.16;840435;23;1154;-76
2022/10/19 17:38:20;;;;;;;3.17;2.80;;;;;;;12.53;56.35;101680.75;840478;23;1127;-76
2022/10/19 17:38:41;;;;;;;3.40;2.80;;;;;;;12.49;56.55;101684.13;840601;23;1295;-77
2022/10/19 17:39:06;;;;;;;4.20;3.13;;;;;;;12.51;56.43;101687.69;840447;23;1208;-76
2022/10/19 17:39:27;;;;;;;5.25;3.35;;;;;;;12.52;56.42;101689.47;839968;23;1884;-76
2022/10/19 17:39:49;;;;;;;5.20;3.30;;;;;;;12.51;56.67;101677.22;839274;23;1254;-76
2022/10/19 17:40:10;;;;;;;6.45;3.22;;;;;;;12.51;56.75;101682.44;845568;23;1900;-77
2022/10/19 17:40:32;;;;;;;5.40;3.20;;;;;;;12.57;56.62;101692.25;843833;23;1177;-76
2022/10/19 17:40:52;;;;;;;4.85;3.08;;;;;;;12.48;56.44;101683.22;844614;23;1224;-76
2022/10/19 17:41:18;;;;;;;3.10;2.80;;;;;;;12.51;56.68;101681.53;844394;23;1070;-77
2022/10/19 17:41:39;;;;;;;5.07;3.00;;;;;;;12.48;56.61;101674.50;850088;23;856;-77
2022/10/19 17:42:02;;;;;;;6.28;2.90;;;;;;;12.49;56.69;101681.50;845762;23;1170;-77
2022/10/19 17:42:25;;;;;;;6.20;2.70;;;;;;;12.47;56.56;101675.31;841923;23;707;-77
2022/10/19 17:42:46;;;;;;;4.20;2.70;;;;;;;12.46;56.59;101677.06;840693;23;1355;-77
2022/10/19 17:43:07;;;;;;;3.70;2.80;;;;;;;12.50;56.49;101680.66;840248;23;1311;-76
2022/10/19 17:43:27;;;;;;;4.88;3.08;;;;;;;12.46;56.79;101674.44;844407;23;845;-77
2022/10/19 17:43:52;;;;;;;5.47;3.30;;;;;;;12.44;56.52;101672.59;844516;23;1069;-76
2022/10/19 17:44:13;;;;;;;5.30;3.35;;;;;;;12.41;56.82;101670.75;852830;23;1216;-77
2022/10/19 17:44:34;;;;;;;4.47;3.22;;;;;;;12.49;56.46;101686.75;854234;23;835;-76
2022/10/19 17:44:54;;;;;;;3.63;3.00;;;;;;;12.47;56.77;101683.16;849991;23;1053;-77
2022/10/19 17:45:15;;;;;;;3.40;2.97;;;;;;;12.44;56.56;101673.50;853821;23;1209;-77
2022/10/19 17:45:36;;;;;;;3.73;2.90;;;;;;;12.50;56.90;101693.75;848833;23;1030;-77
2022/10/19 17:46:01;;;;;;;5.15;3.17;;;;;;;12.41;56.79;101675.13;840673;23;1119;-77
2022/10/19 17:46:26;;;;;;;5.53;3.50;;;;;;;12.36;56.94;101676.69;844517;23;1293;-77
2022/10/19 17:46:47;;;;;;;6.47;3.55;;;;;;;12.43;57.01;101689.16;848585;23;837;-77
2022/10/19 17:47:07;;;;;;;4.85;3.30;;;;;;;12.34;56.77;101680.13;848606;23;1152;-77
2022/10/19 17:47:29;;;;;;;4.22;3.20;;;;;;;12.33;56.93;101683.59;844676;23;1422;-77
2022/10/19 17:47:49;;;;;;;4.25;3.25;;;;;;;12.33;57.03;101678.34;850042;23;1031;-77
2022/10/19 17:48:10;;;;;;;4.70;3.30;;;;;;;12.39;56.86;101692.47;850164;23;813;-76
2022/10/19 17:48:32;;;;;;;4.75;3.17;;;;;;;12.30;56.89;101674.75;844724;23;1422;-76
2022/10/19 17:48:53;;;;;;;3.33;2.80;;;;;;;12.33;57.11;101690.53;848829;23;1221;-77
2022/10/19 17:49:15;;;;;;;4.00;3.00;;;;;;;12.30;57.25;101683.47;851615;23;1165;-77
2022/10/19 17:49:35;;;;;;;4.20;3.00;;;;;;;12.31;57.14;101681.75;847961;23;1256;-77
2022/10/19 17:49:56;;;;;;;5.57;3.10;;;;;;;12.36;57.50;101700.25;848181;23;1066;-76
2022/10/19 17:50:17;;;;;;;5.50;3.00;;;;;;;12.32;57.57;101687.06;845445;23;901;-77
2022/10/19 17:50:37;;;;;;;5.30;2.90;;;;;;;12.33;57.20;101688.81;844440;23;1150;-77
2022/10/19 17:51:00;;;;;;;4.47;2.93;;;;;;;12.39;57.15;101697.72;848428;23;1141;-76
2022/10/19 17:51:25;;;;;;;4.20;2.97;;;;;;;12.32;57.02;101687.06;852434;23;1106;-77
2022/10/19 17:51:47;;;;;;;4.43;2.80;;;;;;;12.33;57.08;101688.81;848588;23;2008;-77
2022/10/19 17:52:07;;;;;;;6.80;3.25;;;;;;;12.33;57.37;101682.69;847254;23;1146;-76
2022/10/19 17:52:28;;;;;;;7.90;3.50;;;;;;;12.42;57.06;101692.59;843271;23;876;-76
2022/10/19 17:52:48;;;;;;;8.43;3.50;;;;;;;12.33;57.42;101691.44;839424;23;1193;-77
2022/10/19 17:53:40;;;;;;;5.28;3.10;;;;;;;12.42;57.13;101692.59;840905;23;911;-77
2022/10/19 17:54:04;;;;;;;4.68;3.30;;;;;;;12.31;57.17;101680.00;840556;23;1457;-77
2022/10/19 17:54:25;;;;;;;4.40;3.00;;;;;;;12.34;57.45;101685.38;839722;23;1197;-77
2022/10/19 17:54:46;;;;;;;4.20;3.00;;;;;;;12.34;57.19;101680.13;845362;23;784;-76
2022/10/19 17:55:08;;;;;;;5.10;3.10;;;;;;;12.41;57.06;101688.22;848266;23;1042;-75
2022/10/19 17:55:28;;;;;;;3.88;2.80;;;;;;;12.41;57.61;101690.84;847825;23;1417;-77
2022/10/19 17:55:49;;;;;;;3.63;2.80;;;;;;;12.41;57.23;101685.59;849189;23;988;-76
2022/10/19 17:56:13;;;;;;;3.40;2.80;;;;;;;12.44;57.19;101696.16;843787;23;1020;-76
2022/10/19 17:56:35;;;;;;;3.60;2.90;;;;;;;12.41;57.30;101682.97;839772;23;1134;-76
2022/10/19 17:56:56;;;;;;;4.47;3.00;;;;;;;12.44;57.31;101689.22;840642;23;984;-76
2022/10/19 17:57:16;;;;;;;4.35;3.13;;;;;;;12.41;57.12;101690.84;841044;23;1038;-76
2022/10/19 17:57:37;;;;;;;4.40;3.20;;;;;;;12.45;56.97;101691.00;839892;23;794;-76
2022/10/19 17:57:58;;;;;;;3.53;3.10;;;;;;;12.40;57.16;101683.81;847634;23;1026;-76
2022/10/19 17:58:18;;;;;;;4.90;3.30;;;;;;;12.41;57.15;101696.94;847629;23;1051;-76
2022/10/19 17:58:40;;;;;;;5.32;3.47;;;;;;;12.39;57.20;101687.25;845181;23;904;-77
2022/10/19 17:59:06;;;;;;;4.93;3.40;;;;;;;12.40;57.34;101692.53;839033;23;1296;-76
2022/10/19 17:59:26;;;;;;;3.50;3.00;;;;;;;12.46;57.42;101699.72;847899;23;1209;-76
2022/10/19 17:59:47;;;;;;;3.20;2.90;;;;;;;12.40;57.27;101689.94;847061;23;1071;-76
2022/10/19 18:00:08;;;;;;;3.20;2.80;;;;;;;12.39;57.22;101692.47;847299;23;1185;-76
2022/10/19 18:00:32;;;;;;;3.90;3.05;;;;;;;12.40;57.58;101689.06;849250;23;816;-77
2022/10/19 18:00:55;;;;;;;5.25;3.42;;;;;;;12.43;57.25;101704.84;843704;23;1204;-76
2022/10/19 18:01:17;;;;;;;5.85;3.50;;;;;;;12.40;57.17;101699.53;846717;23;1057;-76
2022/10/19 18:01:38;;;;;;;5.97;3.30;;;;;;;12.38;57.38;101695.94;851727;23;1359;-76
2022/10/19 18:01:59;;;;;;;9.93;3.03;;;;;;;12.41;57.25;101707.41;849729;23;1180;-76
2022/10/19 18:02:19;;;;;;;10.67;3.20;;;;;;;12.43;57.42;101712.72;851896;23;1536;-76
2022/10/19 18:02:43;;;;;;;10.07;3.37;;;;;;;12.37;57.49;101705.53;851937;23;778;-76
2022/10/19 18:03:03;;;;;;;3.17;2.83;;;;;;;12.33;57.29;101699.31;843517;23;1052;-76
2022/10/19 18:03:26;;;;;;;3.23;2.93;;;;;;;12.41;57.52;101711.78;845083;23;1113;-77
2022/10/19 18:03:48;;;;;;;3.30;2.90;;;;;;;12.41;57.53;101717.00;846695;23;926;-76
2022/10/19 18:04:08;;;;;;;3.30;3.00;;;;;;;12.39;57.48;101708.19;852806;23;1025;-76
2022/10/19 18:04:29;;;;;;;3.03;2.70;;;;;;;12.36;57.63;101708.09;852032;23;1163;-76
2022/10/19 18:04:50;;;;;;;3.13;2.83;;;;;;;12.34;57.40;101711.53;849824;23;1089;-77
2022/10/19 18:05:10;;;;;;;3.25;2.95;;;;;;;12.36;57.54;101709.00;847904;23;1038;-76
2022/10/19 18:05:31;;;;;;;5.82;3.20;;;;;;;12.31;57.42;101706.19;846114;23;766;-77
2022/10/19 18:05:58;;;;;;;7.47;3.30;;;;;;;12.38;57.69;101712.56;824028;23;3214;-76
2022/10/19 18:06:20;;;;;;;6.75;3.63;;;;;;;12.37;57.63;101715.09;845037;23;1086;-77
2022/10/19 18:06:41;;;;;;;5.30;3.85;;;;;;;12.37;57.78;101705.53;847933;23;1211;-76
2022/10/19 18:07:02;;;;;;;6.10;3.83;;;;;;;12.34;57.76;101706.31;839788;23;953;-76
2022/10/19 18:07:24;;;;;;;6.17;3.73;;;;;;;12.36;57.71;101708.09;839714;23;1043;-77
2022/10/19 18:07:44;;;;;;;6.05;3.60;;;;;;;12.37;57.74;101709.88;845398;23;801;-77
2022/10/19 18:08:05;;;;;;;4.70;3.33;;;;;;;12.34;57.48;101703.69;843459;23;1123;-76
2022/10/19 18:08:28;;;;;;;5.75;3.00;;;;;;;12.36;57.85;101705.47;836120;23;1210;-76
2022/10/19 18:08:51;;;;;;;5.95;3.15;;;;;;;12.40;57.38;101712.63;839836;23;1268;-76
2022/10/19 18:09:12;;;;;;;5.90;3.30;;;;;;;12.36;57.80;101705.47;835788;23;1107;-76
2022/10/19 18:09:33;;;;;;;4.22;3.30;;;;;;;12.37;57.76;101709.88;836791;23;770;-76
2022/10/19 18:09:53;;;;;;;5.25;3.38;;;;;;;12.40;57.48;101713.47;837241;23;1036;-77
2022/10/19 18:10:14;;;;;;;9.30;3.70;;;;;;;12.39;57.27;101708.19;837264;23;1342;-76
2022/10/19 18:10:35;;;;;;;9.15;3.65;;;;;;;12.40;57.44;101708.25;838568;23;901;-76
2022/10/19 18:11:02;;;;;;;9.40;3.42;;;;;;;12.37;57.39;101704.63;843463;23;1254;-77
2022/10/19 18:11:25;;;;;;;6.35;3.20;;;;;;;12.35;57.72;101701.94;839393;23;1169;-76
2022/10/19 18:11:46;;;;;;;5.03;3.30;;;;;;;12.37;57.79;101704.63;839710;23;1223;-77
2022/10/19 18:12:12;;;;;;;6.53;3.50;;;;;;;12.34;57.61;101703.69;843737;23;1124;-76
2022/10/19 18:12:32;;;;;;;6.70;3.50;;;;;;;12.40;57.79;101707.38;843739;23;1110;-77
2022/10/19 18:12:53;;;;;;;6.85;3.25;;;;;;;12.33;57.81;101699.31;841264;23;1000;-77
2022/10/19 18:13:13;;;;;;;5.13;3.27;;;;;;;12.36;57.51;101713.31;839672;23;1344;-76
2022/10/19 18:13:35;;;;;;;5.10;3.20;;;;;;;12.33;57.84;101707.16;837301;23;754;-76
2022/10/19 18:13:59;;;;;;;4.28;3.10;;;;;;;12.31;57.71;101698.34;839577;23;1191;-76
2022/10/19 18:14:19;;;;;;;4.10;3.10;;;;;;;12.35;57.67;101701.94;842723;23;1250;-76
2022/10/19 18:14:40;;;;;;;5.40;3.40;;;;;;;12.37;57.74;101704.63;847596;23;1172;-76
2022/10/19 18:15:00;;;;;;;5.57;3.50;;;;;;;12.36;57.41;101705.47;847571;23;1313;-78
2022/10/19 18:15:21;;;;;;;6.93;3.30;;;;;;;12.32;57.67;101700.13;844922;23;901;-76
2022/10/19 18:15:42;;;;;;;6.88;3.38;;;;;;;12.34;57.84;101708.03;843388;23;1137;-77
2022/10/19 18:16:12;;;;;;;7.57;3.55;;;;;;;12.34;57.88;101706.31;840827;23;965;-77
2022/10/19 18:16:43;;;;;;;6.22;3.90;;;;;;;12.37;57.94;101704.63;841083;23;1396;-77
2022/10/19 18:17:04;;;;;;;4.05;3.30;;;;;;;12.38;57.79;101702.06;835297;23;1021;-77
2022/10/19 18:17:25;;;;;;;4.70;3.28;;;;;;;12.42;57.91;101713.56;835942;23;1104;-75
2022/10/19 18:17:46;;;;;;;5.00;3.30;;;;;;;12.34;57.68;101706.31;833883;23;691;-76
2022/10/19 18:18:06;;;;;;;7.67;3.57;;;;;;;12.41;57.81;101715.25;839299;23;1033;-76
2022/10/19 18:18:29;;;;;;;9.80;3.70;;;;;;;12.34;58.16;101697.56;839438;23;1408;-77
2022/10/19 18:18:53;;;;;;;9.50;3.60;;;;;;;12.33;58.00;101701.00;839559;23;1194;-77
2022/10/19 18:19:15;;;;;;;7.80;3.35;;;;;;;12.34;57.72;101706.31;841071;23;978;-76
2022/10/19 18:19:35;;;;;;;5.75;3.20;;;;;;;12.33;57.88;101704.53;835367;23;1202;-77
2022/10/19 18:19:56;;;;;;;5.22;3.20;;;;;;;12.31;57.94;101700.94;840942;23;933;-76
2022/10/19 18:20:17;;;;;;;4.40;3.38;;;;;;;12.26;57.89;101693.78;845244;23;1917;-76
2022/10/19 18:20:38;;;;;;;4.23;3.30;;;;;;;12.26;57.70;101694.69;843838;23;1247;-76
2022/10/19 18:21:03;;;;;;;6.45;3.35;;;;;;;12.30;57.95;101704.41;839740;23;1096;-77
2022/10/19 18:21:26;;;;;;;5.95;3.25;;;;;;;12.34;58.13;101715.88;840096;23;849;-78
2022/10/19 18:21:47;;;;;;;3.40;3.10;;;;;;;12.30;58.07;101700.91;839794;23;1212;-76
2022/10/19 18:22:08;;;;;;;3.30;3.00;;;;;;;12.30;58.00;101700.91;844038;23;1066;-77
2022/10/19 18:22:29;;;;;;;3.53;3.20;;;;;;;12.31;58.13;101706.19;844071;23;1049;-76
2022/10/19 18:22:49;;;;;;;3.92;3.22;;;;;;;12.33;58.12;101711.47;847913;23;1349;-77
2022/10/19 18:23:10;;;;;;;4.50;3.30;;;;;;;12.25;58.22;101703.38;839597;23;1084;-77
2022/10/19 18:23:31;;;;;;;4.07;3.30;;;;;;;12.20;58.12;101692.75;841620;23;769;-77
2022/10/19 18:23:54;;;;;;;3.75;3.40;;;;;;;12.29;58.39;101707.84;843706;23;1013;-76
2022/10/19 18:24:18;;;;;;;4.03;3.65;;;;;;;12.22;58.22;101700.63;847032;23;1109;-76
2022/10/19 18:24:39;;;;;;;5.30;3.80;;;;;;;12.26;58.42;101705.16;847765;23;1236;-76
2022/10/19 18:24:59;;;;;;;5.67;3.90;;;;;;;12.19;58.19;101690.06;843852;23;1101;-77
2022/10/19 18:25:20;;;;;;;5.90;3.70;;;;;;;12.18;58.52;101689.16;835997;23;1346;-76
2022/10/19 18:25:41;;;;;;;6.53;3.90;;;;;;;12.16;58.32;101687.34;841164;23;756;-77
2022/10/19 18:26:09;;;;;;;6.77;3.87;;;;;;;12.20;58.62;101699.69;841169;23;1074;-77
2022/10/19 18:26:32;;;;;;;6.15;3.50;;;;;;;12.18;58.46;101693.50;845587;23;841;-77
2022/10/19 18:26:53;;;;;;;6.07;3.60;;;;;;;12.19;58.65;101696.16;845146;23;964;-79
2022/10/19 18:27:13;;;;;;;7.32;4.07;;;;;;;12.23;58.34;101702.41;843694;23;1254;-77
2022/10/19 18:27:34;;;;;;;6.50;4.20;;;;;;;12.18;58.19;101693.50;839995;23;1197;-78
2022/10/19 18:27:55;;;;;;;5.90;4.10;;;;;;;12.16;58.40;101693.44;835957;23;1157;-78
2022/10/19 18:28:16;;;;;;;5.43;3.80;;;;;;;12.22;58.43;101697.13;841357;23;989;-78
2022/10/19 18:28:37;;;;;;;6.22;4.28;;;;;;;12.19;58.51;101695.28;835834;23;1419;-76
2022/10/19 18:28:59;;;;;;;7.20;4.40;;;;;;;12.20;58.52;101694.44;835907;23;1214;-75
2022/10/19 18:29:22;;;;;;;6.10;4.10;;;;;;;12.24;58.21;101704.22;835993;23;1218;-76
2022/10/19 18:29:43;;;;;;;6.00;3.60;;;;;;;12.15;58.34;101688.16;835639;23;1094;-76
2022/10/19 18:30:04;;;;;;;5.28;3.75;;;;;;;12.14;58.58;101691.59;839707;23;1034;-78
2022/10/19 18:30:25;;;;;;;6.95;4.00;;;;;;;12.19;58.48;101695.28;839942;23;1214;-77
2022/10/19 18:30:45;;;;;;;6.85;3.72;;;;;;;12.18;58.45;101693.50;843830;23;1125;-77
2022/10/19 18:31:12;;;;;;;6.83;3.70;;;;;;;12.18;58.50;101696.13;839670;23;1224;-77
2022/10/19 18:31:32;;;;;;;5.35;3.67;;;;;;;12.22;58.35;101703.25;841405;23;809;-77
2022/10/19 18:31:53;;;;;;;6.63;3.50;;;;;;;12.13;58.48;101695.06;841403;23;991;-77
2022/10/19 18:32:14;;;;;;;7.55;3.90;;;;;;;12.17;58.59;101692.59;841630;23;1112;-77
2022/10/19 18:32:34;;;;;;;7.63;4.00;;;;;;;12.16;58.36;101695.19;837628;23;1258;-77
2022/10/19 18:32:55;;;;;;;7.30;4.10;;;;;;;12.15;58.31;101696.00;841396;23;972;-77
2022/10/19 18:33:16;;;;;;;6.47;3.80;;;;;;;12.14;58.65;101694.22;841337;23;965;-77
2022/10/19 18:33:37;;;;;;;6.23;3.67;;;;;;;12.04;58.53;101693.03;835949;23;1063;-77
2022/10/19 18:34:03;;;;;;;5.32;3.88;;;;;;;12.03;58.78;101689.50;837301;23;951;-77
2022/10/19 18:34:25;;;;;;;5.70;3.70;;;;;;;12.09;58.71;101703.66;840230;23;876;-77
2022/10/19 18:34:45;;;;;;;5.63;3.95;;;;;;;12.06;58.77;101694.84;845274;23;743;-76
2022/10/19 18:35:07;;;;;;;3.93;3.57;;;;;;;12.06;58.74;101701.81;847214;23;1007;-77
2022/10/19 18:35:28;;;;;;;4.00;3.60;;;;;;;12.11;58.82;101696.75;844119;23;1126;-77
2022/10/19 18:35:48;;;;;;;4.18;3.40;;;;;;;12.14;58.66;101696.84;839931;23;1097;-76
2022/10/19 18:36:09;;;;;;;4.72;3.33;;;;;;;12.14;58.73;101696.84;843730;23;1359;-76
2022/10/19 18:36:31;;;;;;;4.90;3.50;;;;;;;12.16;58.83;101705.66;843817;23;1128;-77
2022/10/19 18:36:53;;;;;;;4.25;3.60;;;;;;;12.12;58.44;101682.81;843766;23;1030;-77
2022/10/19 18:37:13;;;;;;;4.38;3.80;;;;;;;12.13;58.41;101689.81;843904;23;1227;-76
2022/10/19 18:37:34;;;;;;;5.70;3.80;;;;;;;12.15;58.35;101693.38;840047;23;1023;-77
2022/10/19 18:37:54;;;;;;;6.37;3.60;;;;;;;12.15;58.40;101691.66;839719;23;1139;-76
2022/10/19 18:38:15;;;;;;;6.78;3.45;;;;;;;12.17;58.70;101695.22;845271;23;993;-77
2022/10/19 18:38:36;;;;;;;5.90;3.60;;;;;;;12.18;58.52;101694.38;845528;23;719;-77
2022/10/19 18:39:00;;;;;;;6.68;3.63;;;;;;;12.25;58.21;101703.38;843916;23;1477;-77
2022/10/19 18:39:21;;;;;;;6.40;3.50;;;;;;;12.23;58.43;101691.94;839830;23;1286;-77
2022/10/19 18:39:42;;;;;;;6.20;3.58;;;;;;;12.23;58.19;101689.31;835597;23;1246;-77
2022/10/19 18:40:02;;;;;;;5.63;3.63;;;;;;;12.20;58.53;101690.13;837348;23;1100;-76
2022/10/19 18:40:23;;;;;;;8.35;4.03;;;;;;;12.24;58.04;101693.75;840027;23;1949;-77
2022/10/19 18:40:44;;;;;;;8.45;4.03;;;;;;;12.23;58.24;101691.06;843458;23;1058;-77
2022/10/19 18:41:12;;;;;;;7.53;4.10;;;;;;;12.19;58.21;101690.94;845373;23;1040;-77
2022/10/19 18:41:33;;;;;;;4.75;3.63;;;;;;;12.26;58.05;101696.38;837667;23;834;-78
2022/10/19 18:41:54;;;;;;;4.60;3.75;;;;;;;12.26;58.59;101697.28;839802;23;1151;-77
2022/10/19 18:42:15;;;;;;;4.20;3.80;;;;;;;12.21;58.27;101683.16;837048;23;996;-77
2022/10/19 18:42:35;;;;;;;4.75;3.80;;;;;;;12.25;58.17;101694.63;836119;23;1059;-78
2022/10/19 18:42:56;;;;;;;6.10;3.63;;;;;;;12.26;58.29;101697.28;843986;23;1119;-77
2022/10/19 18:43:16;;;;;;;6.90;3.60;;;;;;;12.27;58.21;101693.84;839712;23;1009;-78
2022/10/19 18:43:38;;;;;;;8.85;3.88;;;;;;;12.24;58.35;101687.59;845461;23;730;-77
2022/10/19 18:44:02;;;;;;;7.40;3.60;;;;;;;12.32;58.18;101702.75;849556;23;1068;-77
2022/10/19 18:44:23;;;;;;;4.55;3.40;;;;;;;12.28;58.35;101698.22;839977;23;1825;-77
2022/10/19 18:44:45;;;;;;;5.50;3.47;;;;;;;12.27;58.04;101693.84;840106;23;1262;-77
2022/10/19 18:45:07;;;;;;;5.82;3.53;;;;;;;12.26;58.42;101686.81;845378;23;1221;-77
2022/10/19 18:45:27;;;;;;;6.38;3.90;;;;;;;12.27;58.25;101688.59;839982;23;1158;-77
2022/10/19 18:45:52;;;;;;;6.22;3.80;;;;;;;12.28;58.16;101686.91;839823;23;1128;-77
2022/10/19 18:46:13;;;;;;;5.78;3.55;;;;;;;12.27;58.01;101685.09;841387;23;990;-76
2022/10/19 18:46:35;;;;;;;7.15;3.55;;;;;;;12.24;58.34;101688.50;840221;23;1142;-77
2022/10/19 18:46:56;;;;;;;6.68;3.50;;;;;;;12.27;58.18;101698.16;841237;23;1042;-77
2022/10/19 18:47:17;;;;;;;5.97;3.65;;;;;;;12.22;58.08;101686.66;844251;23;1193;-77
2022/10/19 18:47:37;;;;;;;4.93;3.80;;;;;;;12.23;58.08;101697.16;839962;23;1209;-77
2022/10/19 18:47:58;;;;;;;5.70;3.80;;;;;;;12.28;58.14;101706.09;837568;23;1037;-77
2022/10/19 18:48:20;;;;;;;5.47;3.88;;;;;;;12.22;58.30;101690.16;839906;23;1128;-77
2022/10/19 18:48:40;;;;;;;5.40;3.60;;;;;;;12.20;58.37;101694.44;835973;23;1316;-77
2022/10/19 18:49:04;;;;;;;4.73;3.63;;;;;;;12.25;58.19;101705.09;835918;23;1240;-77
2022/10/19 18:49:25;;;;;;;5.07;3.80;;;;;;;12.21;58.30;101693.59;841583;23;864;-78
2022/10/19 18:49:45;;;;;;;5.80;3.90;;;;;;;12.16;58.13;101687.34;847855;23;898;-78
2022/10/19 18:50:06;;;;;;;5.97;3.83;;;;;;;12.15;58.62;101691.66;849658;23;1035;-77
2022/10/19 18:50:28;;;;;;;5.78;4.00;;;;;;;12.19;58.35;101693.53;848321;23;1430;-77
2022/10/19 18:50:49;;;;;;;4.45;3.83;;;;;;;12.18;58.39;101689.16;844020;23;1173;-77
2022/10/19 18:51:09;;;;;;;4.40;3.80;;;;;;;12.23;58.54;101702.41;840203;23;1174;-77
2022/10/19 18:51:30;;;;;;;4.65;3.50;;;;;;;12.15;58.23;101688.16;840263;23;1347;-77
2022/10/19 18:51:51;;;;;;;6.65;3.95;;;;;;;12.16;58.40;101695.19;840075;23;1189;-77
2022/10/19 18:52:12;;;;;;;6.80;3.90;;;;;;;12.12;58.55;101688.97;840154;23;1175;-77
2022/10/19 18:52:34;;;;;;;7.23;3.97;;;;;;;12.16;58.18;101700.44;840159;23;1117;-77
2022/10/19 18:52:55;;;;;;;7.25;3.78;;;;;;;12.15;58.58;101696.91;840379;23;1125;-77
2022/10/19 18:53:16;;;;;;;7.03;3.70;;;;;;;12.11;58.55;101691.50;842396;23;1079;-78
2022/10/19 18:53:36;;;;;;;5.90;3.93;;;;;;;12.09;58.55;101687.94;841745;23;921;-77
2022/10/19 18:53:57;;;;;;;5.28;4.15;;;;;;;12.11;58.77;101691.50;845930;23;1404;-77
2022/10/19 18:54:18;;;;;;;5.65;4.78;;;;;;;12.03;58.62;101676.41;838430;23;1193;-77
2022/10/19 18:54:38;;;;;;;5.78;4.63;;;;;;;12.06;58.60;101689.59;841872;23;1323;-78
2022/10/19 18:54:59;;;;;;;7.23;4.80;;;;;;;12.02;58.48;101686.81;841631;23;1151;-78
2022/10/19 18:55:20;;;;;;;7.72;4.60;;;;;;;12.04;58.75;101690.41;841371;23;1240;-77
2022/10/19 18:55:41;;;;;;;7.78;4.90;;;;;;;12.03;59.10;101686.88;841459;23;1010;-77
2022/10/19 18:56:08;;;;;;;6.30;4.70;;;;;;;12.06;58.91;101692.22;834780;23;1054;-78
2022/10/19 18:56:29;;;;;;;6.50;4.70;;;;;;;12.04;58.63;101687.78;837235;23;834;-77
2022/10/19 18:56:49;;;;;;;8.98;4.97;;;;;;;12.03;58.98;101689.50;841190;23;1256;-77
2022/10/19 18:57:10;;;;;;;9.40;4.90;;;;;;;12.04;58.96;101682.56;840233;23;1256;-77
2022/10/19 18:57:32;;;;;;;8.60;4.70;;;;;;;12.03;59.18;101689.50;849277;23;1000;-77
2022/10/19 18:57:53;;;;;;;6.82;4.50;;;;;;;12.07;58.71;101694.00;847297;23;988;-77
2022/10/19 18:58:13;;;;;;;6.33;4.50;;;;;;;12.02;58.78;101682.50;852163;23;1038;-77
2022/10/19 18:58:35;;;;;;;5.53;4.35;;;;;;;12.09;59.03;101698.41;852776;23;884;-76
2022/10/19 18:58:56;;;;;;;5.10;4.05;;;;;;;12.07;58.91;101691.38;849942;23;971;-77
2022/10/19 18:59:17;;;;;;;4.90;4.07;;;;;;;12.03;58.89;101692.13;849742;23;1029;-76
2022/10/19 18:59:38;;;;;;;4.75;4.22;;;;;;;12.02;58.91;101687.72;849492;23;778;-77
2022/10/19 18:59:58;;;;;;;5.13;4.20;;;;;;;12.02;58.84;101682.50;840210;23;1217;-76
2022/10/19 19:00:19;;;;;;;4.50;3.88;;;;;;;12.04;58.92;101687.78;840141;23;1909;-77
2022/10/19 19:00:42;;;;;;;5.10;3.67;;;;;;;12.00;58.80;101680.66;844186;23;810;-76
2022/10/19 19:01:07;;;;;;;4.70;3.60;;;;;;;12.00;59.13;101685.88;845664;23;915;-78
2022/10/19 19:01:28;;;;;;;4.32;3.45;;;;;;;12.03;58.92;101683.34;844344;23;841;-77
2022/10/19 19:01:49;;;;;;;4.35;3.80;;;;;;;12.06;58.99;101692.22;835873;23;1098;-76
2022/10/19 19:02:09;;;;;;;5.00;3.85;;;;;;;11.97;58.80;101673.56;836021;23;1060;-76
2022/10/19 19:02:30;;;;;;;5.13;3.90;;;;;;;11.97;59.14;101670.94;836035;23;1373;-76
2022/10/19 19:02:52;;;;;;;7.40;4.07;;;;;;;12.05;59.24;101689.56;839665;23;1103;-77
2022/10/19 19:03:13;;;;;;;8.32;4.57;;;;;;;12.01;58.93;101675.47;838972;23;1141;-77
2022/10/19 19:03:35;;;;;;;8.67;4.53;;;;;;;12.01;59.13;101675.47;839922;23;1073;-78
2022/10/19 19:03:59;;;;;;;5.25;3.85;;;;;;;12.03;58.97;101678.13;843910;23;1115;-78
2022/10/19 19:04:20;;;;;;;4.63;3.40;;;;;;;12.02;59.09;101682.50;845267;23;1044;-78
2022/10/19 19:04:40;;;;;;;4.10;3.60;;;;;;;12.00;59.11;101673.69;839992;23;1263;-76
2022/10/19 19:05:01;;;;;;;5.85;3.80;;;;;;;12.02;59.05;101676.34;845327;23;838;-78
2022/10/19 19:05:22;;;;;;;7.50;4.10;;;;;;;12.01;59.09;101680.72;840083;23;1385;-76
2022/10/19 19:05:42;;;;;;;8.13;4.10;;;;;;;12.00;59.13;101678.94;839842;23;1119;-76
2022/10/19 19:06:08;;;;;;;6.88;4.18;;;;;;;11.92;59.06;101673.41;835912;23;1101;-76
2022/10/19 19:06:30;;;;;;;5.80;4.20;;;;;;;11.95;58.98;101677.88;835881;23;1198;-76
2022/10/19 19:06:51;;;;;;;5.38;4.18;;;;;;;11.93;59.36;101672.56;839597;23;1173;-78
2022/10/19 19:07:11;;;;;;;6.00;3.90;;;;;;;11.90;59.24;101667.22;839861;23;1143;-76
2022/10/19 19:07:32;;;;;;;5.60;4.00;;;;;;;11.89;59.02;101664.56;848163;23;1133;-77
2022/10/19 19:07:54;;;;;;;6.13;4.05;;;;;;;11.91;59.20;101684.69;849256;23;956;-77
2022/10/19 19:08:15;;;;;;;4.75;4.15;;;;;;;11.88;59.38;101668.91;853550;23;940;-78
2022/10/19 19:08:35;;;;;;;4.70;4.10;;;;;;;11.88;59.34;101668.00;850168;23;749;-77
2022/10/19 19:08:58;;;;;;;5.10;3.90;;;;;;;11.94;59.42;101686.53;853479;23;999;-77
2022/10/19 19:09:19;;;;;;;5.32;4.00;;;;;;;11.84;59.43;101672.22;853515;23;1069;-77
2022/10/19 19:09:41;;;;;;;5.43;4.00;;;;;;;11.85;59.25;101673.13;849190;23;828;-77
2022/10/19 19:10:02;;;;;;;4.10;3.70;;;;;;;11.87;59.35;101679.31;847667;23;1922;-77
2022/10/19 19:10:23;;;;;;;6.25;3.60;;;;;;;11.83;59.28;101680.00;848040;23;786;-77
2022/10/19 19:10:45;;;;;;;8.32;4.10;;;;;;;11.88;59.49;101673.22;845204;23;837;-77
2022/10/19 19:11:20;;;;;;;10.10;4.35;;;;;;;11.80;59.71;101675.53;839346;23;1364;-77
2022/10/19 19:11:40;;;;;;;6.35;4.00;;;;;;;11.76;59.75;101679.81;843880;23;889;-77
2022/10/19 19:12:01;;;;;;;8.50;4.13;;;;;;;11.78;59.65;101672.91;843891;23;1104;-77
2022/10/19 19:12:22;;;;;;;8.13;4.30;;;;;;;11.82;59.74;101678.22;848047;23;1147;-77
2022/10/19 19:12:43;;;;;;;8.75;4.07;;;;;;;11.74;59.79;101673.59;843799;23;1400;-77
2022/10/19 19:13:04;;;;;;;6.25;4.10;;;;;;;11.72;59.84;101672.66;843802;23;1153;-78
2022/10/19 19:13:25;;;;;;;6.32;3.90;;;;;;;11.70;59.61;101674.34;840321;23;1107;-77
2022/10/19 19:13:52;;;;;;;6.13;3.97;;;;;;;11.73;60.03;101679.66;839707;23;1183;-77
2022/10/19 19:14:15;;;;;;;4.88;3.90;;;;;;;11.77;59.90;101663.28;835333;23;1406;-76
2022/10/19 19:14:37;;;;;;;4.30;3.90;;;;;;;11.82;59.82;101673.00;837582;23;794;-78
2022/10/19 19:14:57;;;;;;;4.40;4.00;;;;;;;11.81;59.48;101672.13;836072;23;1179;-77
2022/10/19 19:15:18;;;;;;;4.40;4.00;;;;;;;11.76;60.00;101682.41;837761;23;1206;-77
2022/10/19 19:15:58;;;;;;;4.93;4.20;;;;;;;11.70;59.83;101673.44;842556;23;1238;-78
2022/10/19 19:16:19;;;;;;;6.63;4.53;;;;;;;11.68;59.87;101670.75;843881;23;1109;-78
2022/10/19 19:16:41;;;;;;;7.60;4.65;;;;;;;11.67;59.75;101668.97;841486;23;785;-78
2022/10/19 19:17:02;;;;;;;7.03;4.38;;;;;;;11.70;60.06;101676.94;845237;23;1039;-78
2022/10/19 19:17:23;;;;;;;8.80;4.50;;;;;;;11.64;60.12;101667.13;835677;23;1037;-77
2022/10/19 19:17:43;;;;;;;8.20;4.40;;;;;;;11.74;59.75;101665.75;839854;23;1080;-78
2022/10/19 19:18:04;;;;;;;9.05;4.50;;;;;;;11.67;59.73;101674.19;839780;23;1271;-79
2022/10/19 19:18:25;;;;;;;7.90;4.40;;;;;;;11.69;60.03;101672.56;844133;23;989;-78
2022/10/19 19:18:46;;;;;;;6.35;4.15;;;;;;;11.69;59.92;101680.41;844035;23;1191;-79
2022/10/19 19:19:08;;;;;;;7.60;4.20;;;;;;;11.66;60.04;101680.25;847839;23;1207;-78
2022/10/19 19:19:29;;;;;;;7.68;4.10;;;;;;;11.59;59.89;101667.75;849245;23;781;-78
2022/10/19 19:19:50;;;;;;;6.43;4.15;;;;;;;11.62;60.01;101670.50;848041;23;1076;-78
2022/10/19 19:20:10;;;;;;;4.90;4.00;;;;;;;11.58;60.03;101671.19;842304;23;931;-78
2022/10/19 19:20:31;;;;;;;5.60;3.97;;;;;;;11.58;60.20;101663.38;839790;23;1942;-78